x

Ne Bahamas - 350 Nm Ene Of Nassau, Bahamas (41047) Wave Buoy

8:50am - Sat 2nd Aug 2014 All times are UTC.

  • Sig Wave height 4.6ft
  • Swell Direction
  • Peak Period 7s
  • Average Period 5s
  • Wind
    18mph, 22mph gusts
  • Sea Temp 84°f
  • Air Temp 83°f
  • Sea Pressure 1016.7mb

More Historic Weather Station data

Upgrade to MSW Pro to gain access to the past 30 days of data for over 8000 Wavebouys and Weather Stations around the globe.

Join Pro

Comparision Forecast

View Surf forecast
   
Sat 08/02 8:50am 4.5ft 7s 5s 18 22 mph 1016.7mb 84f 83f
7:50am 4.5ft 7s 5s 16 20 mph 1016.9mb 84f 83f
6:50am 4.5ft 7s 5s 16 18 mph 1017.9mb 84f 82f
5:50am 4.5ft 7s 5s 16 18 mph 1018.2mb 84f 83f
4:50am 4.5ft 7s 5s 18 20 mph 1018.8mb 84f 83f
3:50am 4.5ft 7s 5s 18 22 mph 1018.8mb 84f 83f
2:50am 4.5ft 7s 5s 18 22 mph 1018.9mb 84f 83f
12:50am 5ft 7s 5s 18 20 mph 1018.6mb 84f 82f
Fri 08/01 11:50pm 4.5ft 7s 5s 20 22 mph 1018.1mb 84f 82f
10:50pm 5ft 7s 5s 20 22 mph 1017.4mb 84f 82f
9:50pm 4.5ft 7s 5s 16 18 mph 1017.5mb 85f 82f
8:50pm 5ft 7s 5s 18 22 mph 1017.3mb 85f 82f
7:50pm 5ft 7s 5s 18 20 mph 1017.5mb 85f 81f
6:50pm 5ft 7s 5s 11 13 mph 1018.4mb 85f 80f
5:50pm 4.5ft 7s 5s 13 18 mph 1018.4mb 85f 80f
4:50pm 4.5ft 7s 5s 20 22 mph 1018.5mb 84f 83f
3:50pm 4.5ft 7s 5s 18 20 mph 1018.7mb 84f 83f
2:50pm 4.5ft 7s 5s 16 20 mph 1018.5mb 84f 82f
1:50pm 4.5ft 7s 5s 16 18 mph 1018.6mb 84f 81f
12:50pm 4.5ft 7s 5s 16 18 mph 1018.3mb 84f 80f
11:50am 4.5ft 7s 5s 25 29 mph 1018.3mb 84f 78f
10:50am 4.5ft 7s 5s 16 20 mph 1017.9mb 84f 82f
9:50am 4.5ft 7s 5s 13 18 mph 1017.5mb 84f 82f
8:50am 4.5ft 7s 5s 13 18 mph 1017.2mb 84f 82f
7:50am 4.5ft 7s 5s 16 18 mph 1017.3mb 84f 82f
6:50am 4.5ft 7s 5s 13 18 mph 1018mb 84f 82f
5:50am 4.5ft 7s 5s 16 18 mph 1018.7mb 84f 82f
4:50am 4ft 7s 5s 16 18 mph 1018.9mb 84f 82f
3:50am 4ft 6s 5s 16 20 mph 1019.4mb 84f 82f
2:50am 4ft 7s 5s 16 18 mph 1019.2mb 84f 83f
1:50am 4ft 7s 5s 13 18 mph 1019.2mb 84f 81f
12:50am 4ft 6s 5s 16 18 mph 1018.9mb 85f 82f
Thu 07/31 11:50pm 4ft 7s 5s 16 20 mph 1018.6mb 85f 82f
10:50pm 4ft 6s 5s 13 18 mph 1018.5mb 85f 81f
9:50pm 4ft 7s 5s 18 25 mph 1018.1mb 85f 82f
8:50pm 4.5ft 7s 5s 13 18 mph 1018.1mb 85f 83f
7:50pm 4.5ft 7s 5s 13 16 mph 1018.4mb 85f 82f
6:50pm 4ft 6s 5s 18 20 mph 1018.5mb 85f 83f
5:50pm 4.5ft 6s 5s 16 20 mph 1018.8mb 85f 83f
4:50pm 4.5ft 6s 5s 16 18 mph 1018.8mb 85f 83f
3:50pm 4.5ft 6s 5s 13 18 mph 1019.2mb 85f 82f
2:50pm 4.5ft 7s 5s 16 18 mph 1019mb 84f 83f
1:50pm 4ft 6s 5s 16 18 mph 1018.7mb 84f 83f
12:50pm 4ft 7s 5s 16 18 mph 1018.9mb 84f 83f
11:50am 4ft 7s 5s 16 18 mph 1018.5mb 84f 81f
10:50am 4.5ft 6s 5s 16 18 mph 1018.3mb 84f 83f
9:50am 4ft 7s 5s 16 20 mph 1018mb 84f 82f
8:50am 4ft 6s 5s 13 18 mph 1017.5mb 84f 82f
7:50am 4ft 7s 5s 13 16 mph 1017.7mb 84f 82f
6:50am 3.5ft 7s 5s 13 16 mph 1017.8mb 84f 82f
5:50am 3.5ft 7s 5s 13 16 mph 1018.2mb 84f 83f
4:50am 3.5ft 6s 5s 13 18 mph 1018.7mb 85f 83f
3:50am 4ft 7s 5s 16 20 mph 1018.4mb 85f 83f
2:50am 3.5ft 6s 5s 16 20 mph 1018.6mb 85f 83f
1:50am 3.5ft 8s 5s 16 18 mph 1018.7mb 85f 82f
12:50am 3.5ft 6s 5s 9 11 mph 1018.2mb 85f 83f
Wed 07/30 11:50pm 3.5ft 6s 5s 7 11 mph 1018.2mb 85f 83f
10:50pm 3.5ft 6s 5s 11 13 mph 1018mb 85f 83f
9:50pm 3.5ft 6s 5s 9 11 mph 1018mb 85f 83f
8:50pm 3.5ft 7s 5s 13 16 mph 1018.3mb 85f 83f
7:50pm 3.5ft 8s 5s 13 16 mph 1018.2mb 85f 83f
6:50pm 3.5ft 5s 5s 13 16 mph 1018.5mb 85f 83f
5:50pm 3.5ft 9s 5s 13 18 mph 1018.5mb 85f 83f
4:50pm 3.5ft 8s 5s 13 16 mph 1018.7mb 85f 83f
3:50pm 3.5ft 6s 5s 11 13 mph 1018.8mb 85f 83f
2:50pm 3.5ft 6s 5s 11 13 mph 1018.9mb 85f 83f
1:50pm 3.5ft 8s 5s 13 16 mph 1018.6mb 84f 83f
12:50pm 3ft 8s 5s 11 13 mph 1018.4mb 84f 83f
11:50am 3.5ft 8s 5s 11 13 mph 1018mb 84f 83f
10:50am 3.5ft 6s 5s 13 16 mph 1017.8mb 84f 83f
9:50am 3.5ft 7s 5s 13
mph
1017.6mb 84f 83f
8:50am 3.5ft 8s 5s 16 18 mph 1017.2mb 84f 80f
7:50am 3ft 7s 5s 13 16 mph 1017.4mb 84f 83f
6:50am 3.5ft 8s 5s 16 18 mph 1017.7mb 84f 83f
5:50am 3.5ft 8s 5s 13 18 mph 1017.9mb 85f 83f
4:50am 3.5ft 8s 5s 13 18 mph 1018.2mb 85f 83f
3:50am 3.5ft 6s 5s 13 18 mph 1018.6mb 85f 82f
2:50am 3.5ft 6s 5s 11 13 mph 1018.7mb 85f 82f
1:50am 3.5ft 8s 5s 11 13 mph 1018.3mb 85f 82f
12:50am 3.5ft 8s 5s 11 13 mph 1018.2mb 85f 82f
Tue 07/29 11:50pm 3.5ft 9s 5s 11 13 mph 1017.9mb 85f 83f
10:50pm 3.5ft 9s 5s 11 13 mph 1018.2mb 85f 83f
9:50pm 3.5ft 8s 5s 4 7 mph 1018.4mb 85f 82f
8:50pm 3.5ft 9s 5s 16
mph
1017.9mb 85f 80f
7:50pm 4ft 8s 5s 11 16 mph 1018.2mb 85f 83f
6:50pm 3.5ft 8s 5s 13 16 mph 1018.1mb 85f 83f
5:50pm 3.5ft 8s 5s 13 16 mph 1018.6mb 85f 83f
4:50pm 4ft 8s 5s 13 16 mph 1018.5mb 85f 82f
3:50pm 3.5ft 8s 5s 13 18 mph 1018.7mb 85f 82f
2:50pm 3.5ft 9s 5s 18 20 mph 1018.4mb 85f 83f
1:50pm 3.5ft 8s 5s 16 20 mph 1018.4mb 85f 82f
12:50pm 3.5ft 8s 5s 16 18 mph 1018mb 85f 83f
11:50am 3.5ft 8s 5s 16 18 mph 1017.6mb 85f 82f
10:50am 3.5ft 8s 6s 13
mph
1017.4mb 85f 83f
9:50am 3.5ft 9s 5s 11 13 mph 1016.8mb 85f 83f